YM Eminence — A8OR9 — position and weather

sailwx.info

Track history (hours):
 
Tides and Currents Weather Stations Pressure Air Temp Water Temp Dewpoint Dewpoint Depression Visibility Wind Speed Wind Dir Waves Ship Positions

YM Eminence

Last reported at 2017-Dec-14 18:23 UTC. Time now 2017-Dec-17 00:32 UTC.
Position N 36°01' E 120°12'.

Length 269 m; draft 10 m.

Type: Ship (hazmat cat B). MMSI: 636013694.

Date/timePositionNaut miles runAvg speedWind from/ knotsBaromVisibWave heightAir tempDewpointWater temp
2017-Dec-14 18:23N 36°01' E 120°12'0 0.0
2017-Dec-14 17:44N 36°01' E 120°12'0 0.0
2017-Dec-14 14:58N 36°01' E 120°12'0 0.0
2017-Dec-14 13:57N 36°01' E 120°12'0 0.0
2017-Dec-14 13:05N 36°01' E 120°12'0 0.0
2017-Dec-14 12:53N 36°01' E 120°12'0 0.0
2017-Dec-14 11:25N 36°01' E 120°12'0 0.0
2017-Dec-14 10:08N 36°01' E 120°12'0 0.0
2017-Dec-14 09:50N 36°01' E 120°12'0 0.0
2017-Dec-14 09:20N 36°01' E 120°12'0 0.0
2017-Dec-14 08:24N 36°01' E 120°12'0 0.0
2017-Dec-14 07:49N 36°01' E 120°12'0 0.0
2017-Dec-14 07:27N 36°01' E 120°12'0 0.0
2017-Dec-14 06:11N 36°01' E 120°12'0 0.1
2017-Dec-14 05:57N 36°01' E 120°12'0 0.0
2017-Dec-14 05:04N 36°01' E 120°12'0 0.0
2017-Dec-14 04:11N 36°01' E 120°12'0 0.0
2017-Dec-14 03:50N 36°01' E 120°12'0 0.0
2017-Dec-14 03:28N 36°01' E 120°12'0 0.0
2017-Dec-14 02:55N 36°01' E 120°12'0 0.0
2017-Dec-14 01:48N 36°01' E 120°12'0 0.0
2017-Dec-14 01:18N 36°01' E 120°12'0 0.0
2017-Dec-14 00:35N 36°01' E 120°12'0 0.0
2017-Dec-14 00:19N 36°01' E 120°12'0 0.0
2017-Dec-13 23:54N 36°01' E 120°12'0 0.0
2017-Dec-13 23:20N 36°01' E 120°12'0 0.2
2017-Dec-13 22:47N 36°01' E 120°13'2 4.4
2017-Dec-13 22:21N 36°02' E 120°14'510.6
2017-Dec-13 21:51N 36°01' E 120°21'711.6
2017-Dec-13 21:15N 36°00' E 120°29'  
2017-Dec-10 09:19N 38°31' E 121°28'2 5.1
2017-Dec-10 09:01N 38°31' E 121°30'2 4.7
2017-Dec-10 08:31N 38°31' E 121°33'2 4.8
2017-Dec-10 08:01N 38°31' E 121°36'4 5.8
2017-Dec-10 07:21N 38°32' E 121°40'5 8.6
2017-Dec-10 06:46N 38°36' E 121°44'3 9.5
2017-Dec-10 06:27N 38°38' E 121°46'4 9.3
2017-Dec-10 06:00N 38°42' E 121°49'5 9.0
2017-Dec-10 05:30N 38°46' E 121°52'3 6.5
2017-Dec-10 05:01N 38°49' E 121°54'3 6.1
2017-Dec-10 04:27N 38°52' E 121°55'  
Track history (hours):
 
Tides and Currents Weather Stations Pressure Air Temp Water Temp Dewpoint Dewpoint Depression Visibility Wind Speed Wind Dir Waves Ship Positions

YM Eminence

Last reported at 2017-Dec-14 18:23 UTC. Time now 2017-Dec-17 00:32 UTC.
Position N 36°01' E 120°12'.

Length 269 m; draft 10 m.

Type: Ship (hazmat cat B). MMSI: 636013694.

Date/timePositionNaut miles runAvg speedWind from/ knotsBaromVisibWave heightAir tempDewpointWater temp
2017-Dec-14 18:23N 36°01' E 120°12'0 0.0
2017-Dec-14 17:44N 36°01' E 120°12'0 0.0
2017-Dec-14 14:58N 36°01' E 120°12'0 0.0
2017-Dec-14 13:57N 36°01' E 120°12'0 0.0
2017-Dec-14 13:05N 36°01' E 120°12'0 0.0
2017-Dec-14 12:53N 36°01' E 120°12'0 0.0
2017-Dec-14 11:25N 36°01' E 120°12'0 0.0
2017-Dec-14 10:08N 36°01' E 120°12'0 0.0
2017-Dec-14 09:50N 36°01' E 120°12'0 0.0
2017-Dec-14 09:20N 36°01' E 120°12'0 0.0
2017-Dec-14 08:24N 36°01' E 120°12'0 0.0
2017-Dec-14 07:49N 36°01' E 120°12'0 0.0
2017-Dec-14 07:27N 36°01' E 120°12'0 0.0
2017-Dec-14 06:11N 36°01' E 120°12'0 0.1
2017-Dec-14 05:57N 36°01' E 120°12'0 0.0
2017-Dec-14 05:04N 36°01' E 120°12'0 0.0
2017-Dec-14 04:11N 36°01' E 120°12'0 0.0
2017-Dec-14 03:50N 36°01' E 120°12'0 0.0
2017-Dec-14 03:28N 36°01' E 120°12'0 0.0
2017-Dec-14 02:55N 36°01' E 120°12'0 0.0
2017-Dec-14 01:48N 36°01' E 120°12'0 0.0
2017-Dec-14 01:18N 36°01' E 120°12'0 0.0
2017-Dec-14 00:35N 36°01' E 120°12'0 0.0
2017-Dec-14 00:19N 36°01' E 120°12'0 0.0
2017-Dec-13 23:54N 36°01' E 120°12'0 0.0
2017-Dec-13 23:20N 36°01' E 120°12'0 0.2
2017-Dec-13 22:47N 36°01' E 120°13'2 4.4
2017-Dec-13 22:21N 36°02' E 120°14'510.6
2017-Dec-13 21:51N 36°01' E 120°21'711.6
2017-Dec-13 21:15N 36°00' E 120°29'  
2017-Dec-10 09:19N 38°31' E 121°28'2 5.1
2017-Dec-10 09:01N 38°31' E 121°30'2 4.7
2017-Dec-10 08:31N 38°31' E 121°33'2 4.8
2017-Dec-10 08:01N 38°31' E 121°36'4 5.8
2017-Dec-10 07:21N 38°32' E 121°40'5 8.6
2017-Dec-10 06:46N 38°36' E 121°44'3 9.5
2017-Dec-10 06:27N 38°38' E 121°46'4 9.3
2017-Dec-10 06:00N 38°42' E 121°49'5 9.0
2017-Dec-10 05:30N 38°46' E 121°52'3 6.5
2017-Dec-10 05:01N 38°49' E 121°54'3 6.1
2017-Dec-10 04:27N 38°52' E 121°55'  

Dump ship's entire track history